createdAt,value
2022-07-26T00:00:15.521Z,81.70
2022-07-26T00:02:48.295Z,83.00
2022-07-26T00:05:11.438Z,82.20
2022-07-26T00:07:39.017Z,82.70
2022-07-26T00:10:07.415Z,83.70
2022-07-26T00:12:35.028Z,83.70
2022-07-26T00:15:02.611Z,84.20
2022-07-26T00:17:30.953Z,85.20
2022-07-26T00:19:58.566Z,85.10
2022-07-26T00:22:35.101Z,85.70
2022-07-26T00:25:05.480Z,85.90
2022-07-26T00:27:33.044Z,86.60
2022-07-26T00:30:00.621Z,86.00
2022-07-26T00:32:28.213Z,85.60
2022-07-26T00:34:55.787Z,86.10
2022-07-26T00:37:24.141Z,87.00
2022-07-26T00:39:51.744Z,87.00
2022-07-26T00:42:19.317Z,87.40
2022-07-26T00:44:46.891Z,88.10
2022-07-26T00:47:14.485Z,87.80
2022-07-26T00:49:42.051Z,88.20
2022-07-26T00:52:09.623Z,89.40
2022-07-26T00:54:37.997Z,89.60
2022-07-26T00:57:06.337Z,90.00
2022-07-26T00:59:33.901Z,90.00
2022-07-26T01:02:01.675Z,90.20
2022-07-26T01:04:29.078Z,90.70
2022-07-26T01:06:57.412Z,90.80
2022-07-26T01:09:25.015Z,90.80
2022-07-26T01:11:52.591Z,91.00
2022-07-26T01:14:23.167Z,91.10
2022-07-26T01:16:51.746Z,90.90
2022-07-26T01:19:19.316Z,91.00
2022-07-26T01:21:46.891Z,91.10
2022-07-26T01:24:15.264Z,91.50
2022-07-26T01:26:43.604Z,91.70
2022-07-26T01:29:11.182Z,91.70
2022-07-26T01:31:38.819Z,92.10
2022-07-26T01:34:06.585Z,91.90
2022-07-26T01:36:33.921Z,92.30
2022-07-26T01:39:01.505Z,91.90
2022-07-26T01:41:37.549Z,92.00
2022-07-26T01:43:57.451Z,92.10
2022-07-26T01:46:25.100Z,92.10
2022-07-26T01:48:52.679Z,91.90
2022-07-26T01:51:20.203Z,92.10
2022-07-26T01:53:47.796Z,91.80
2022-07-26T01:56:15.370Z,92.00
2022-07-26T01:58:43.732Z,92.90
2022-07-26T02:01:11.349Z,92.50
2022-07-26T02:03:38.905Z,92.80
2022-07-26T02:06:06.474Z,93.10
2022-07-26T02:08:34.081Z,93.40
2022-07-26T02:11:03.484Z,93.60
2022-07-26T02:13:35.992Z,94.00
2022-07-26T02:16:06.413Z,94.00
2022-07-26T02:18:33.946Z,94.10
2022-07-26T02:21:02.289Z,94.70
2022-07-26T02:23:29.891Z,94.40
2022-07-26T02:25:58.242Z,94.70
2022-07-26T02:28:25.818Z,94.70
2022-07-26T02:30:53.442Z,94.90
2022-07-26T02:33:20.986Z,95.10
2022-07-26T02:35:48.560Z,94.70
2022-07-26T02:38:16.165Z,94.70
2022-07-26T02:40:44.506Z,95.60
2022-07-26T02:43:12.071Z,95.30
2022-07-26T02:45:39.664Z,95.50
2022-07-26T02:48:08.016Z,96.30
2022-07-26T02:50:35.592Z,96.30
2022-07-26T02:53:03.208Z,95.90
2022-07-26T02:55:30.777Z,96.10
2022-07-26T02:57:58.344Z,96.30
2022-07-26T03:00:25.946Z,96.50
2022-07-26T03:02:54.396Z,97.30
2022-07-26T03:05:21.881Z,97.00
2022-07-26T03:07:50.253Z,97.50
2022-07-26T03:10:18.871Z,98.10
2022-07-26T03:12:46.445Z,97.80
2022-07-26T03:15:14.049Z,98.00
2022-07-26T03:17:41.624Z,98.20
2022-07-26T03:20:10.235Z,98.80
2022-07-26T03:22:37.845Z,98.50
2022-07-26T03:25:05.409Z,98.70
2022-07-26T03:27:32.978Z,98.80
2022-07-26T03:30:00.725Z,99.00
2022-07-26T03:32:28.303Z,98.50
2022-07-26T03:34:56.659Z,98.50
2022-07-26T03:37:24.234Z,98.50
2022-07-26T03:39:52.576Z,98.30
2022-07-26T03:42:20.161Z,98.20
2022-07-26T03:44:47.754Z,98.30
2022-07-26T03:47:15.330Z,98.40
2022-07-26T03:49:42.903Z,98.40
2022-07-26T03:52:10.506Z,98.10
2022-07-26T03:54:38.139Z,98.30
2022-07-26T03:57:05.723Z,98.50
2022-07-26T03:59:33.317Z,98.80
2022-07-26T04:02:00.982Z,98.50
2022-07-26T04:04:28.506Z,98.50
2022-07-26T04:06:56.454Z,98.20
2022-07-26T04:09:24.026Z,98.40
2022-07-26T04:11:51.606Z,98.60
2022-07-26T04:14:19.962Z,99.20
2022-07-26T04:16:47.557Z,99.00
2022-07-26T04:19:15.882Z,99.30
2022-07-26T04:21:43.485Z,99.30
2022-07-26T04:24:12.074Z,99.50
2022-07-26T04:26:39.394Z,99.50
2022-07-26T04:29:07.348Z,99.10
2022-07-26T04:31:36.537Z,99.20
2022-07-26T04:34:02.507Z,99.50
2022-07-26T04:36:30.887Z,99.00
2022-07-26T04:38:59.239Z,98.80
2022-07-26T04:41:26.813Z,98.80
2022-07-26T04:43:55.481Z,99.50
2022-07-26T04:46:23.071Z,99.40
2022-07-26T04:48:50.677Z,99.30
2022-07-26T04:51:18.253Z,99.50
2022-07-26T04:53:45.836Z,99.80
2022-07-26T04:56:13.429Z,99.90
2022-07-26T04:58:41.025Z,99.90
2022-07-26T05:01:10.449Z,99.90
2022-07-26T05:03:36.319Z,99.90
2022-07-26T05:06:04.682Z,99.90
2022-07-26T05:08:32.256Z,99.90
2022-07-26T05:10:59.829Z,99.90
2022-07-26T05:13:30.625Z,99.90
2022-07-26T05:15:55.916Z,99.90
2022-07-26T05:18:23.506Z,99.90
2022-07-26T05:20:51.880Z,99.90
2022-07-26T05:23:19.453Z,99.90
2022-07-26T05:25:47.028Z,99.90
2022-07-26T05:28:15.852Z,99.90
2022-07-26T05:30:43.465Z,99.90
2022-07-26T05:33:10.981Z,99.90
2022-07-26T05:35:39.363Z,99.90
2022-07-26T05:38:08.045Z,99.90
2022-07-26T05:40:35.281Z,99.90
2022-07-26T05:43:03.857Z,99.90
2022-07-26T05:45:31.488Z,99.90
2022-07-26T05:47:59.782Z,99.90
2022-07-26T05:50:28.282Z,99.90
2022-07-26T05:52:55.857Z,99.90
2022-07-26T05:55:24.210Z,99.90
2022-07-26T05:57:51.824Z,99.90
2022-07-26T06:00:19.395Z,99.90
2022-07-26T06:02:47.027Z,99.90
2022-07-26T06:05:14.938Z,99.90
2022-07-26T06:07:42.513Z,99.90
2022-07-26T06:10:10.314Z,99.90
2022-07-26T06:12:38.695Z,99.90
2022-07-26T06:15:15.291Z,99.90
2022-07-26T06:17:34.648Z,99.90
2022-07-26T06:20:02.236Z,99.90
2022-07-26T06:22:29.818Z,99.90
2022-07-26T06:24:57.393Z,99.90
2022-07-26T06:27:25.962Z,99.90
2022-07-26T06:29:53.526Z,99.90
2022-07-26T06:32:21.099Z,99.90
2022-07-26T06:34:48.712Z,99.90
2022-07-26T06:37:16.297Z,99.90
2022-07-26T06:39:43.871Z,99.90
2022-07-26T06:42:11.496Z,99.90
2022-07-26T06:44:39.059Z,99.90
2022-07-26T06:47:06.656Z,99.90
2022-07-26T06:49:34.265Z,99.90
2022-07-26T06:52:01.819Z,99.90
2022-07-26T06:54:29.395Z,99.90
2022-07-26T06:56:57.009Z,99.90
2022-07-26T06:59:25.364Z,99.90
2022-07-26T07:01:59.620Z,99.90
2022-07-26T07:04:20.602Z,99.90
2022-07-26T07:06:48.122Z,99.90
2022-07-26T07:09:15.716Z,99.90
2022-07-26T07:11:43.349Z,99.90
2022-07-26T07:14:11.141Z,99.90
2022-07-26T07:16:38.616Z,99.90
2022-07-26T07:19:06.146Z,99.80
2022-07-26T07:21:33.744Z,99.60
2022-07-26T07:24:02.087Z,98.50
2022-07-26T07:26:29.706Z,98.50
2022-07-26T07:28:57.290Z,98.10
2022-07-26T07:31:30.115Z,98.00
2022-07-26T07:33:53.747Z,97.70
2022-07-26T07:36:21.618Z,97.00
2022-07-26T07:38:51.937Z,97.00
2022-07-26T07:41:19.807Z,97.10
2022-07-26T07:43:47.393Z,96.90
2022-07-26T07:46:15.825Z,96.50
2022-07-26T07:48:47.382Z,96.50
2022-07-26T07:51:10.961Z,96.00
2022-07-26T07:53:38.551Z,95.80
2022-07-26T07:56:06.159Z,95.70
2022-07-26T07:58:33.749Z,95.90
2022-07-26T08:01:01.419Z,96.10
2022-07-26T08:03:39.001Z,96.50
2022-07-26T08:05:56.505Z,96.80
2022-07-26T08:08:24.088Z,97.10
2022-07-26T08:10:52.768Z,97.20
2022-07-26T08:13:21.447Z,97.40
2022-07-26T08:15:46.852Z,97.30
2022-07-26T08:18:14.457Z,97.10
2022-07-26T08:20:42.807Z,97.20
2022-07-26T08:23:10.404Z,97.20
2022-07-26T08:25:50.133Z,97.10
2022-07-26T08:28:19.728Z,96.70
2022-07-26T08:30:35.519Z,96.70
2022-07-26T08:33:03.123Z,96.70
2022-07-26T08:35:30.717Z,96.80
2022-07-26T08:37:58.284Z,97.00
2022-07-26T08:40:25.885Z,97.00
2022-07-26T08:42:53.470Z,97.10
2022-07-26T08:45:27.188Z,97.10
2022-07-26T08:48:16.809Z,97.10
2022-07-26T08:50:23.132Z,97.20
2022-07-26T08:52:50.717Z,97.20
2022-07-26T08:55:19.148Z,97.30
2022-07-26T08:57:46.723Z,96.90
2022-07-26T09:00:17.275Z,96.80
2022-07-26T09:02:45.740Z,96.70
2022-07-26T09:05:13.324Z,96.40
2022-07-26T09:07:41.665Z,96.30
2022-07-26T09:10:09.792Z,96.30
2022-07-26T09:12:37.374Z,96.00
2022-07-26T09:15:05.107Z,95.70
2022-07-26T09:17:40.234Z,95.10
2022-07-26T09:20:11.149Z,94.70
2022-07-26T09:22:38.747Z,94.70
2022-07-26T09:25:22.211Z,93.60
2022-07-26T09:27:49.810Z,93.60
2022-07-26T09:30:17.379Z,93.20
2022-07-26T09:33:00.786Z,92.70
2022-07-26T09:35:51.079Z,92.50
2022-07-26T09:37:55.938Z,92.10
2022-07-26T09:40:24.314Z,91.60
2022-07-26T09:43:01.341Z,91.40
2022-07-26T09:45:28.964Z,91.40
2022-07-26T09:47:57.298Z,91.30
2022-07-26T09:50:24.946Z,91.30
2022-07-26T09:53:10.557Z,91.30
2022-07-26T09:55:46.939Z,90.90
2022-07-26T09:58:15.339Z,90.20
2022-07-26T10:00:42.932Z,90.20
2022-07-26T10:03:10.575Z,90.00
2022-07-26T10:05:38.107Z,90.20
2022-07-26T10:08:06.453Z,90.00
2022-07-26T10:10:39.807Z,90.00
2022-07-26T10:13:07.403Z,89.70
2022-07-26T10:15:37.610Z,89.10
2022-07-26T10:18:05.898Z,88.50
2022-07-26T10:20:45.330Z,88.40
2022-07-26T10:23:31.151Z,88.00
2022-07-26T10:26:00.300Z,85.90
2022-07-26T10:28:27.105Z,85.90
2022-07-26T10:31:23.360Z,84.90
2022-07-26T10:33:51.665Z,84.00
2022-07-26T10:36:31.271Z,83.90
2022-07-26T10:39:10.555Z,84.30
2022-07-26T10:41:38.178Z,82.60
2022-07-26T10:44:14.798Z,82.10
2022-07-26T10:47:03.898Z,82.20
2022-07-26T10:49:31.479Z,81.50
2022-07-26T10:52:07.946Z,81.40
2022-07-26T10:54:56.877Z,81.20
2022-07-26T10:57:24.509Z,80.10
2022-07-26T10:59:56.429Z,79.20
2022-07-26T11:02:23.166Z,78.20
2022-07-26T11:04:50.775Z,78.10
2022-07-26T11:07:19.128Z,77.70
2022-07-26T11:09:46.701Z,77.60
2022-07-26T11:12:20.333Z,77.10
2022-07-26T11:14:48.560Z,77.30
2022-07-26T11:17:27.629Z,76.20
2022-07-26T11:19:55.993Z,74.70
2022-07-26T11:22:23.558Z,74.60
2022-07-26T11:24:51.503Z,73.80
2022-07-26T11:27:19.086Z,72.70
2022-07-26T11:29:49.231Z,72.10
2022-07-26T11:32:21.975Z,72.10
2022-07-26T11:34:49.104Z,71.10
2022-07-26T11:37:16.677Z,71.10
2022-07-26T11:39:44.311Z,70.00
2022-07-26T11:42:14.327Z,69.40
2022-07-26T11:44:44.890Z,69.30
2022-07-26T11:47:16.565Z,68.50
2022-07-26T11:50:00.538Z,66.40
2022-07-26T11:52:12.494Z,66.30
2022-07-26T11:54:49.685Z,64.50
2022-07-26T11:57:18.036Z,63.30
2022-07-26T11:59:45.666Z,63.20
2022-07-26T12:02:14.012Z,63.80
2022-07-26T12:04:41.750Z,63.70
2022-07-26T12:07:14.585Z,63.20
2022-07-26T12:09:42.209Z,62.10
2022-07-26T12:12:10.560Z,60.90
2022-07-26T12:14:38.127Z,60.70
2022-07-26T12:17:14.384Z,60.10
2022-07-26T12:19:41.964Z,60.00
2022-07-26T12:22:13.015Z,58.30
2022-07-26T12:24:46.479Z,58.70
2022-07-26T12:27:19.709Z,58.70
2022-07-26T12:30:02.307Z,58.40
2022-07-26T12:32:33.591Z,58.30
2022-07-26T12:35:07.379Z,58.30
2022-07-26T12:37:40.306Z,59.00
2022-07-26T12:40:11.702Z,59.20
2022-07-26T12:42:40.046Z,59.30
2022-07-26T12:45:07.717Z,59.30
2022-07-26T12:47:35.726Z,59.50
2022-07-26T12:50:03.328Z,59.20
2022-07-26T12:52:31.613Z,59.10
2022-07-26T12:54:59.226Z,59.00
2022-07-26T12:57:26.799Z,59.10
2022-07-26T12:59:54.374Z,59.10
2022-07-26T13:02:22.372Z,59.00
2022-07-26T13:04:50.013Z,58.90
2022-07-26T13:07:17.510Z,59.00
2022-07-26T13:09:45.902Z,57.00
2022-07-26T13:12:14.226Z,56.20
2022-07-26T13:14:41.798Z,56.20
2022-07-26T13:17:09.527Z,56.60
2022-07-26T13:19:37.007Z,56.40
2022-07-26T13:22:04.589Z,56.50
2022-07-26T13:24:32.193Z,56.10
2022-07-26T13:27:00.379Z,56.70
2022-07-26T13:29:27.345Z,56.30
2022-07-26T13:31:54.954Z,55.90
2022-07-26T13:34:22.529Z,56.50
2022-07-26T13:36:50.096Z,56.30
2022-07-26T13:39:17.707Z,56.20
2022-07-26T13:41:45.332Z,55.60
2022-07-26T13:44:13.436Z,54.90
2022-07-26T13:46:40.539Z,53.80
2022-07-26T13:49:08.909Z,53.10
2022-07-26T13:51:54.405Z,53.00
2022-07-26T13:54:21.988Z,52.30
2022-07-26T13:56:49.581Z,51.50
2022-07-26T13:59:17.973Z,50.50
2022-07-26T14:01:45.681Z,50.40
2022-07-26T14:04:13.721Z,50.00
2022-07-26T14:06:40.734Z,49.90
2022-07-26T14:09:10.920Z,49.20
2022-07-26T14:11:36.669Z,49.20
2022-07-26T14:14:04.613Z,49.10
2022-07-26T14:16:32.242Z,48.10
2022-07-26T14:18:59.767Z,48.40
2022-07-26T14:21:28.149Z,47.80
2022-07-26T14:23:56.501Z,48.20
2022-07-26T14:26:24.125Z,48.70
2022-07-26T14:28:52.457Z,47.80
2022-07-26T14:31:20.834Z,47.50
2022-07-26T14:33:48.379Z,47.50
2022-07-26T14:36:15.986Z,47.20
2022-07-26T14:38:43.563Z,47.60
2022-07-26T14:41:11.134Z,47.10
2022-07-26T14:43:38.748Z,45.60
2022-07-26T14:46:06.443Z,45.10
2022-07-26T14:48:53.436Z,44.70
2022-07-26T14:51:09.955Z,44.70
2022-07-26T14:53:29.135Z,44.20
2022-07-26T14:55:56.717Z,42.60
2022-07-26T14:58:24.322Z,42.80
2022-07-26T15:00:51.930Z,43.70
2022-07-26T15:03:19.478Z,43.90
2022-07-26T15:05:47.449Z,43.90
2022-07-26T15:08:15.021Z,43.50
2022-07-26T15:10:42.596Z,42.50
2022-07-26T15:13:10.999Z,44.70
2022-07-26T15:15:38.571Z,44.70
2022-07-26T15:18:06.150Z,45.10
2022-07-26T15:20:33.759Z,45.30
2022-07-26T15:23:02.105Z,46.20
2022-07-26T15:25:29.685Z,46.20
2022-07-26T15:27:58.066Z,47.00
2022-07-26T15:30:26.438Z,47.80
2022-07-26T15:32:53.993Z,47.80
2022-07-26T15:35:21.606Z,48.00
2022-07-26T15:37:49.190Z,48.40
2022-07-26T15:40:16.768Z,48.40
2022-07-26T15:42:44.440Z,48.00
2022-07-26T15:45:11.995Z,47.90
2022-07-26T15:48:00.947Z,47.60
2022-07-26T15:50:08.135Z,47.00
2022-07-26T15:52:38.655Z,46.40
2022-07-26T15:55:09.121Z,46.50
2022-07-26T15:57:36.737Z,46.60
2022-07-26T16:00:11.016Z,44.80
2022-07-26T16:02:34.572Z,44.80
2022-07-26T16:05:02.923Z,45.30
2022-07-26T16:07:31.275Z,45.30
2022-07-26T16:09:58.859Z,45.10
2022-07-26T16:12:27.240Z,46.00
2022-07-26T16:14:55.602Z,46.10
2022-07-26T16:17:23.176Z,46.60
2022-07-26T16:19:52.453Z,47.30
2022-07-26T16:22:20.027Z,47.30
2022-07-26T16:24:47.601Z,47.80
2022-07-26T16:27:15.981Z,48.60
2022-07-26T16:29:46.784Z,49.20
2022-07-26T16:32:12.009Z,48.90
2022-07-26T16:34:39.503Z,49.20
2022-07-26T16:37:07.088Z,49.40
2022-07-26T16:39:34.712Z,50.10
2022-07-26T16:42:06.739Z,48.60
2022-07-26T16:44:30.696Z,48.60
2022-07-26T16:46:58.296Z,48.50
2022-07-26T16:49:25.988Z,48.90
2022-07-26T16:51:53.458Z,49.10
2022-07-26T16:54:21.031Z,49.50
2022-07-26T16:56:48.645Z,49.60
2022-07-26T16:59:16.831Z,50.00
2022-07-26T17:01:43.848Z,50.40
2022-07-26T17:04:11.387Z,50.40
2022-07-26T17:06:38.963Z,50.60
2022-07-26T17:09:06.546Z,50.70
2022-07-26T17:11:34.158Z,50.90
2022-07-26T17:14:01.742Z,51.00
2022-07-26T17:16:30.175Z,52.00
2022-07-26T17:18:57.698Z,51.70
2022-07-26T17:21:26.050Z,52.30
2022-07-26T17:23:53.624Z,52.30
2022-07-26T17:26:22.005Z,52.40
2022-07-26T17:28:50.350Z,52.50
2022-07-26T17:31:17.923Z,52.40
2022-07-26T17:33:45.526Z,52.40
2022-07-26T17:36:24.803Z,52.20
2022-07-26T17:38:52.412Z,52.20
2022-07-26T17:41:19.985Z,51.90
2022-07-26T17:43:47.558Z,51.30
2022-07-26T17:46:16.149Z,50.30
2022-07-26T17:48:45.223Z,49.20
2022-07-26T17:51:12.723Z,49.10
2022-07-26T17:53:40.403Z,49.00
2022-07-26T17:56:08.011Z,49.30
2022-07-26T17:58:35.593Z,49.80
2022-07-26T18:01:03.207Z,50.20
2022-07-26T18:03:30.796Z,50.70
2022-07-26T18:05:58.432Z,51.30
2022-07-26T18:08:26.874Z,51.40
2022-07-26T18:10:54.449Z,51.80
2022-07-26T18:13:22.805Z,53.40
2022-07-26T18:15:50.449Z,52.60
2022-07-26T18:18:17.977Z,53.00
2022-07-26T18:20:45.562Z,53.60
2022-07-26T18:23:14.071Z,53.60
2022-07-26T18:25:41.646Z,53.90
2022-07-26T18:28:09.998Z,54.80
2022-07-26T18:30:37.607Z,54.60
2022-07-26T18:33:05.180Z,55.00
2022-07-26T18:35:32.765Z,55.20
2022-07-26T18:38:01.265Z,55.40
2022-07-26T18:40:28.840Z,55.70
2022-07-26T18:42:57.194Z,56.70
2022-07-26T18:45:24.802Z,56.10
2022-07-26T18:47:53.146Z,56.30
2022-07-26T18:50:20.720Z,56.30
2022-07-26T18:52:49.102Z,56.70
2022-07-26T18:55:17.444Z,56.80
2022-07-26T18:57:45.008Z,56.70
2022-07-26T19:00:15.704Z,57.00
2022-07-26T19:02:43.287Z,57.30
2022-07-26T19:05:10.862Z,57.50
2022-07-26T19:07:38.479Z,57.70
2022-07-26T19:10:06.129Z,57.80
2022-07-26T19:12:33.704Z,58.00
2022-07-26T19:15:01.316Z,58.20
2022-07-26T19:17:30.359Z,58.50
2022-07-26T19:19:57.232Z,59.00
2022-07-26T19:22:24.846Z,59.00
2022-07-26T19:24:52.419Z,59.20
2022-07-26T19:27:20.004Z,59.70
2022-07-26T19:29:47.623Z,60.30
2022-07-26T19:32:15.181Z,61.30
2022-07-26T19:34:42.759Z,62.10
2022-07-26T19:37:10.625Z,62.80
2022-07-26T19:39:38.190Z,63.40
2022-07-26T19:42:05.764Z,64.00
2022-07-26T19:44:33.416Z,64.40
2022-07-26T19:47:00.981Z,64.80
2022-07-26T19:49:28.625Z,65.10
2022-07-26T19:51:56.180Z,65.60
2022-07-26T19:54:23.752Z,66.10
2022-07-26T19:56:51.337Z,66.70
2022-07-26T19:59:23.387Z,66.70
2022-07-26T20:01:47.103Z,67.10
2022-07-26T20:04:14.611Z,67.60
2022-07-26T20:06:42.480Z,68.20
2022-07-26T20:09:10.201Z,68.80
2022-07-26T20:11:37.638Z,69.20
2022-07-26T20:14:06.009Z,69.50
2022-07-26T20:16:33.634Z,70.20
2022-07-26T20:19:01.928Z,70.60
2022-07-26T20:21:29.530Z,70.30
2022-07-26T20:23:57.882Z,71.10
2022-07-26T20:26:25.459Z,71.00
2022-07-26T20:28:54.222Z,70.30
2022-07-26T20:31:21.844Z,70.80
2022-07-26T20:33:49.361Z,70.70
2022-07-26T20:36:18.641Z,71.10
2022-07-26T20:38:51.387Z,71.10
2022-07-26T20:41:14.553Z,71.80
2022-07-26T20:43:42.157Z,71.00
2022-07-26T20:46:10.520Z,71.60
2022-07-26T20:48:38.160Z,71.50
2022-07-26T20:51:05.687Z,71.70
2022-07-26T20:53:33.261Z,72.00
2022-07-26T20:56:00.835Z,72.30
2022-07-26T20:58:28.450Z,72.60
2022-07-26T21:00:56.846Z,73.20
2022-07-26T21:03:24.365Z,73.20
2022-07-26T21:05:51.980Z,73.50
2022-07-26T21:08:19.564Z,73.60
2022-07-26T21:10:47.138Z,73.20
2022-07-26T21:13:15.107Z,73.50
2022-07-26T21:15:42.670Z,73.60
2022-07-26T21:18:10.243Z,73.80
2022-07-26T21:20:38.636Z,74.30
2022-07-26T21:23:16.787Z,74.60
2022-07-26T21:25:34.552Z,74.60
2022-07-26T21:28:03.319Z,74.90
2022-07-26T21:30:30.892Z,74.80
2022-07-26T21:32:58.465Z,74.30
2022-07-26T21:35:27.014Z,74.30
2022-07-26T21:37:54.598Z,73.90
2022-07-26T21:40:22.173Z,74.30
2022-07-26T21:42:50.555Z,74.50
2022-07-26T21:45:18.898Z,75.00
2022-07-26T21:47:46.470Z,74.90
2022-07-26T21:50:14.419Z,75.40
2022-07-26T21:52:42.004Z,75.80
2022-07-26T21:55:09.586Z,76.00
2022-07-26T21:57:39.159Z,76.70
2022-07-26T22:00:06.813Z,76.70
2022-07-26T22:02:34.476Z,77.00
2022-07-26T22:05:02.349Z,77.40
2022-07-26T22:07:29.919Z,77.80
2022-07-26T22:09:58.265Z,78.40
2022-07-26T22:12:25.883Z,78.30
2022-07-26T22:14:53.458Z,78.00
2022-07-26T22:17:21.043Z,78.30
2022-07-26T22:19:48.646Z,78.70
2022-07-26T22:22:16.230Z,79.30
2022-07-26T22:24:43.804Z,79.60
2022-07-26T22:27:11.467Z,80.00
2022-07-26T22:29:39.060Z,80.30
2022-07-26T22:32:06.704Z,80.50
2022-07-26T22:34:34.267Z,80.90
2022-07-26T22:37:01.886Z,81.20
2022-07-26T22:39:30.215Z,81.60
2022-07-26T22:42:14.905Z,81.60
2022-07-26T22:44:25.548Z,81.10
2022-07-26T22:46:53.134Z,81.40
2022-07-26T22:49:22.722Z,82.20
2022-07-26T22:51:50.280Z,82.80
2022-07-26T22:54:18.633Z,82.70
2022-07-26T22:56:47.419Z,82.80
2022-07-26T22:59:15.377Z,82.40
2022-07-26T23:01:42.577Z,82.70
2022-07-26T23:04:11.011Z,83.20
2022-07-26T23:06:39.299Z,83.60
2022-07-26T23:09:06.875Z,83.50
2022-07-26T23:11:34.458Z,83.90
2022-07-26T23:14:02.790Z,83.80
2022-07-26T23:16:30.383Z,83.70
2022-07-26T23:18:57.967Z,84.10
2022-07-26T23:21:25.543Z,84.60
2022-07-26T23:23:53.122Z,84.80
2022-07-26T23:26:20.709Z,84.20
2022-07-26T23:28:48.284Z,84.50
2022-07-26T23:31:16.705Z,85.00
2022-07-26T23:33:51.694Z,84.90
2022-07-26T23:36:12.562Z,85.50
2022-07-26T23:38:40.147Z,85.50
2022-07-26T23:41:07.902Z,85.80
2022-07-26T23:43:35.481Z,86.80
2022-07-26T23:46:03.039Z,86.40
2022-07-26T23:48:31.488Z,86.30
2022-07-26T23:50:58.981Z,86.20
2022-07-26T23:53:27.457Z,87.00
2022-07-26T23:55:54.924Z,87.00
2022-07-26T23:58:23.262Z,87.90
